Aviation Digital Data Service (ADDS)

Output produced by METARs form (0108 UTC 01 April 2015)
found at http://www.aviationweather.gov/adds/metars/
 
KUNV 010053Z 00000KT 5SM HZ BKN020 OVC030 01/00 A2986
KUNV 312353Z 00000KT 5SM HZ SCT030 OVC100 00/M01 A2982
KUNV 312253Z VRB06KT 4SM HZ SCT009 OVC025 00/M01 A2978
KUNV 312153Z COR VRB06KT 2 1/2SM -SN OVC015 00/M01 A2974
KUNV 312130Z COR 33005KT 2SM -SN SCT002 OVC015 00/M01 A2973
KUNV 312053Z 33005KT 3/4SM -SN BKN002 OVC010 00/M01 A2972
KUNV 311953Z 07005KT 3SM -SN BR BKN004 OVC008 00/00 A2969
KUNV 311853Z 04010KT 3SM -RA BR BKN008 BKN025 OVC035 00/00 A2969
KUNV 311825Z 04010KT 2SM -RA BR SCT002 BKN006 OVC060 00/00 A2968
KUNV 311753Z 04006KT 1/2SM -RA FG BKN002 BKN019 OVC035 00/00 A2967
KUNV 311653Z COR 04003KT 1/2SM SN SCT001 OVC006 00/00 A2971
KUNV 311634Z 04004KT 1/2SM SN OVC060 00/00 A2973
KUNV 311553Z 02007KT 1SM -SN SCT013 OVC020 01/00 A2973
KUNV 311453Z 00000KT 5SM -SN SCT017 BKN023 OVC035 02/M01 A2977
KUNV 311353Z 00000KT 10SM OVC060 03/M03 A2979
KUNV 311253Z 00000KT 10SM OVC045 02/M03 A2984
KUNV 311210Z 21005KT 3SM -SN BKN029 OVC050 02/M04 A2986
KUNV 311153Z COR 19005KT 7SM OVC050 02/M04 A2987
KUNV 311053Z 00000KT 10SM SCT065 00/M04 A2988
KUNV 310953Z 28006KT 10SM SKC 01/M05 A2987
KUNV 310915Z AUTO 27004KT 10SM SCT120 02/M05 A2988 RMK AO2 T00191046
KUNV 310855Z AUTO 26006KT 10SM SCT120 01/M05 A2988 RMK AO2 T00141047
KUNV 310835Z AUTO 27004KT 10SM SCT060 02/M05 A2988 RMK AO2 T00171046
KUNV 310815Z AUTO 26005KT 10SM CLR 03/M04 A2989 RMK AO2 T00251041
KUNV 310755Z AUTO 27003KT 10SM CLR 02/M04 A2989 RMK AO2 T00191039
KUNV 310735Z AUTO 28008KT 10SM CLR 02/M04 A2989 RMK AO2 T00221039
KUNV 310715Z AUTO 29004KT 10SM CLR 03/M04 A2989 RMK AO2 T00321036
KUNV 310655Z AUTO 30006KT 10SM CLR 04/M03 A2990 RMK AO2 T00381035
KUNV 310635Z AUTO 30004KT 10SM CLR 03/M03 A2991 RMK AO2 T00331030
KUNV 310615Z AUTO 26009KT 10SM SCT075 03/M02 A2991 RMK AO2 T00341025
KUNV 310555Z AUTO 33003KT 10SM BKN075 04/M02 A2991 RMK AO2 T00441022 10081 20040
KUNV 310535Z AUTO 32003KT 10SM OVC075 05/M02 A2991 RMK AO2 T00481022
KUNV 310515Z AUTO 00000KT 10SM OVC075 05/M02 A2991 RMK AO2 T00501019
KUNV 310455Z AUTO 36004KT 10SM OVC080 05/M02 A2991 RMK AO2 T00491020
KUNV 310435Z AUTO 33005KT 10SM OVC080 04/M02 A2990 RMK AO2 T00421023
KUNV 310415Z AUTO 03006KT 10SM SCT080 05/M03 A2989 RMK AO2 T00451033
KUNV 310355Z AUTO 00000KT 10SM SCT070 SCT090 06/M03 A2988 RMK AO2 T00581032 401030008
KUNV 310335Z AUTO 25007KT 10SM SCT070 SCT090 05/M03 A2987 RMK AO2 T00501032
KUNV 310315Z AUTO 22005KT 10SM SCT070 SCT080 BKN100 05/M03 A2987 RMK AO2 T00521030
KUNV 310255Z AUTO 26006G09KT 10SM SCT060 BKN080 BKN100 06/M03 A2988 RMK AO2 T00621029
KUNV 310235Z AUTO 25006G10KT 10SM SCT034 SCT060 BKN070 07/M03 A2988 RMK AO2 T00691031
KUNV 310215Z AUTO 27008G16KT 10SM SCT037 SCT050 BKN060 07/M03 A2988 RMK AO2 T00721034
KUNV 310053Z 27015G24KT 10SM SCT060 BKN070 07/M04 A2987
KUNV 302353Z 28016G24KT 10SM BKN070 BKN090 08/M06 A2985
KUNV 302253Z 29018G25KT 10SM SCT060 BKN070 08/M06 A2985
KUNV 302153Z 29017G25KT 10SM SCT080 09/M07 A2983
KUNV 302053Z 30017G28KT 10SM SCT070 BKN080 09/M06 A2984
KUNV 301953Z 27020G30KT 10SM SCT050 BKN060 BKN070 10/M04 A2984
KUNV 301753Z 26011G19KT 10SM BKN050 OVC070 08/M03 A2985
KUNV 301653Z 29017G22KT 10SM BKN047 OVC050 07/M03 A2985
KUNV 301553Z 29018G27KT 10SM OVC044 07/M02 A2984
KUNV 301453Z 29016G21KT 10SM SCT038 OVC048 06/M02 A2984
KUNV 301353Z 28013G19KT 10SM SCT026 BKN044 OVC050 05/01 A2983